Time;durP1;ratioP1;P1;durP2;ratioP2;P2;SDS_P1;SDS_P2;PMS_P1;PMS_P2;Temp;Humidity;BMP_temperature;BMP_pressure;BME280_temperature;BME280_humidity;BME280_pressure;Samples;Min_cycle;Max_cycle;Signal;HPM_P1;HPM_P2
2021/01/02 00:01:27;;;;;;;19.00;11.60;;;1.70;99.90;;;;;;4899873;29;20427;-66
2021/01/02 00:04:09;;;;;;;19.97;11.70;;;1.70;99.90;;;;;;4899458;29;20857;-66
2021/01/02 00:06:48;;;;;;;17.43;12.20;;;1.70;99.90;;;;;;4899626;29;20440;-66
2021/01/02 00:09:18;;;;;;;18.63;12.30;;;1.80;99.90;;;;;;4899618;29;20433;-66
2021/01/02 00:12:00;;;;;;;20.30;11.73;;;1.80;99.90;;;;;;4899427;29;20433;-66
2021/01/02 00:14:37;;;;;;;16.40;10.93;;;1.80;99.90;;;;;;4899486;29;20792;-67
2021/01/02 00:17:23;;;;;;;16.87;11.97;;;1.80;99.90;;;;;;4899285;29;20415;-66
2021/01/02 00:20:21;;;;;;;16.83;11.23;;;1.90;99.90;;;;;;4898866;29;20916;-66
2021/01/02 00:22:52;;;;;;;17.20;11.87;;;1.90;99.90;;;;;;4899215;29;20447;-66
2021/01/02 00:25:22;;;;;;;13.97;9.93;;;1.90;99.90;;;;;;4899211;29;20434;-66
2021/01/02 00:28:15;;;;;;;22.20;11.80;;;1.90;99.90;;;;;;4899211;29;20425;-67
2021/01/02 00:31:21;;;;;;;18.47;11.47;;;2.10;99.90;;;;;;4899467;29;20465;-66
2021/01/02 00:34:22;;;;;;;16.57;10.73;;;2.10;99.90;;;;;;4870405;29;20835;-66
2021/01/02 00:36:57;;;;;;;16.80;9.67;;;2.10;99.90;;;;;;4899239;29;20862;-66
2021/01/02 00:39:32;;;;;;;15.30;10.03;;;2.10;99.90;;;;;;4898625;29;20846;-66
2021/01/02 00:42:02;;;;;;;15.03;9.93;;;2.20;99.90;;;;;;4898968;29;20441;-66
2021/01/02 00:44:31;;;;;;;15.87;10.57;;;2.20;99.90;;;;;;4898806;29;20449;-66
2021/01/02 00:46:58;;;;;;;16.97;9.93;;;2.10;99.90;;;;;;4898588;29;20999;-66
2021/01/02 00:49:29;;;;;;;15.30;9.47;;;2.10;99.90;;;;;;4898578;29;20628;-64
2021/01/02 00:52:14;;;;;;;21.23;10.77;;;2.20;99.90;;;;;;4898819;29;20501;-64
2021/01/02 00:54:54;;;;;;;16.47;9.57;;;2.20;99.90;;;;;;4898832;29;20429;-64
2021/01/02 00:57:42;;;;;;;15.77;10.40;;;2.20;99.90;;;;;;4898776;29;20445;-64
2021/01/02 01:00:09;;;;;;;14.20;10.33;;;2.30;99.90;;;;;;4898438;29;20806;-64
2021/01/02 01:03:01;;;;;;;14.50;8.57;;;2.40;99.90;;;;;;4898457;29;20525;-64
2021/01/02 01:05:32;;;;;;;16.10;9.80;;;2.40;99.90;;;;;;4898592;29;20488;-64
2021/01/02 01:07:59;;;;;;;15.30;9.30;;;2.40;99.90;;;;;;4899432;29;20832;-64
2021/01/02 01:10:26;;;;;;;14.63;9.40;;;2.40;99.90;;;;;;4898530;29;20495;-64
2021/01/02 01:12:58;;;;;;;17.83;11.20;;;2.50;99.90;;;;;;4898451;29;20447;-64
2021/01/02 01:15:25;;;;;;;14.47;9.10;;;2.50;99.90;;;;;;4898574;29;20512;-64
2021/01/02 01:18:12;;;;;;;15.33;10.07;;;2.50;99.90;;;;;;4898245;29;20485;-64
2021/01/02 01:20:44;;;;;;;13.07;9.20;;;2.60;99.90;;;;;;4885729;29;20866;-64
2021/01/02 01:23:26;;;;;;;16.10;9.60;;;2.60;99.90;;;;;;4897969;29;20841;-64
2021/01/02 01:26:21;;;;;;;16.27;10.00;;;2.60;99.90;;;;;;4898061;29;20527;-64
2021/01/02 01:28:55;;;;;;;15.03;9.33;;;2.60;99.90;;;;;;4898258;29;20433;-64
2021/01/02 01:31:22;;;;;;;13.63;8.47;;;2.60;99.90;;;;;;4898113;29;20429;-64
2021/01/02 01:33:51;;;;;;;15.50;8.40;;;2.50;99.90;;;;;;4897763;29;20500;-64
2021/01/02 01:36:20;;;;;;;13.40;8.80;;;2.50;99.90;;;;;;4898223;29;20453;-64
2021/01/02 01:38:48;;;;;;;13.33;8.50;;;2.50;99.90;;;;;;4897984;29;20489;-64
2021/01/02 01:41:16;;;;;;;15.13;8.73;;;2.30;99.90;;;;;;4898103;29;20453;-64
2021/01/02 01:44:36;;;;;;;14.67;7.97;;;2.30;99.90;;;;;;4897771;29;20456;-64
2021/01/02 01:47:11;;;;;;;13.20;8.33;;;2.20;99.90;;;;;;4895387;29;20538;-64
2021/01/02 01:50:22;;;;;;;17.03;8.37;;;2.10;99.90;;;;;;4898033;29;20471;-64
2021/01/02 01:53:23;;;;;;;13.70;8.00;;;2.10;99.90;;;;;;4883386;29;21060;-64
2021/01/02 01:56:07;;;;;;;17.83;9.33;;;2.20;99.90;;;;;;4876417;29;20852;-64
2021/01/02 01:59:23;;;;;;;16.93;9.17;;;2.30;99.90;;;;;;4897743;29;20837;-64
2021/01/02 02:01:52;;;;;;;17.57;10.23;;;2.40;99.90;;;;;;4901322;29;20453;-64
2021/01/02 02:05:01;;;;;;;15.83;9.10;;;2.30;99.90;;;;;;4901879;29;20477;-64
2021/01/02 02:07:42;;;;;;;17.77;9.23;;;2.40;99.90;;;;;;4901899;29;20429;-64
2021/01/02 02:10:09;;;;;;;12.90;8.40;;;2.30;99.90;;;;;;4901786;29;20460;-64
2021/01/02 02:12:36;;;;;;;15.37;8.10;;;2.30;99.90;;;;;;4901153;29;20993;-64
2021/01/02 02:15:12;;;;;;;14.80;8.80;;;2.30;99.90;;;;;;4901847;29;20449;-64
2021/01/02 02:17:44;;;;;;;16.73;8.40;;;2.30;99.90;;;;;;4901480;29;20476;-64
2021/01/02 02:20:13;;;;;;;13.37;8.43;;;2.40;99.90;;;;;;4901296;29;20858;-64
2021/01/02 02:22:41;;;;;;;13.73;8.07;;;2.40;99.90;;;;;;4901471;29;20472;-64
2021/01/02 02:25:10;;;;;;;14.47;8.10;;;2.40;99.90;;;;;;4901479;29;20449;-64
2021/01/02 02:27:38;;;;;;;12.30;7.53;;;2.40;99.90;;;;;;4901336;29;20863;-64
2021/01/02 02:30:13;;;;;;;16.40;9.20;;;2.50;99.90;;;;;;4901308;29;20460;-64
2021/01/02 02:32:42;;;;;;;13.37;7.63;;;2.60;99.90;;;;;;4901221;29;20520;-64
2021/01/02 02:35:12;;;;;;;13.57;7.83;;;2.60;99.90;;;;;;4901234;29;20464;-64
2021/01/02 02:37:39;;;;;;;13.80;8.60;;;2.60;99.90;;;;;;4901144;29;20463;-64
2021/01/02 02:40:08;;;;;;;12.13;8.53;;;2.60;99.90;;;;;;4901184;29;20453;-64
2021/01/02 02:42:38;;;;;;;14.90;7.97;;;2.60;99.90;;;;;;4900850;29;20473;-64
2021/01/02 02:45:08;;;;;;;16.37;8.97;;;2.60;99.90;;;;;;4900926;29;20423;-64
2021/01/02 02:47:39;;;;;;;14.50;8.90;;;2.70;99.90;;;;;;4900974;29;20469;-64
2021/01/02 02:50:11;;;;;;;15.20;8.50;;;2.70;99.90;;;;;;4901295;29;20415;-64
2021/01/02 02:52:40;;;;;;;13.03;8.27;;;2.70;99.90;;;;;;4901007;29;20472;-64
2021/01/02 02:55:07;;;;;;;14.53;8.47;;;2.70;99.90;;;;;;4900543;29;20841;-64
2021/01/02 02:57:34;;;;;;;13.20;8.43;;;2.70;99.90;;;;;;4900677;29;20423;-64
2021/01/02 03:00:00;;;;;;;13.33;8.60;;;2.80;99.90;;;;;;4900758;29;20821;-64
2021/01/02 03:02:26;;;;;;;13.37;8.50;;;2.80;99.90;;;;;;4900360;29;20477;-64
2021/01/02 03:04:53;;;;;;;14.70;8.47;;;2.80;99.90;;;;;;4901019;29;20423;-64
2021/01/02 03:07:20;;;;;;;12.33;7.47;;;2.80;99.90;;;;;;4900934;29;20423;-64
2021/01/02 03:09:46;;;;;;;11.67;7.20;;;2.80;99.90;;;;;;4900614;29;20453;-64
2021/01/02 03:12:12;;;;;;;13.00;8.17;;;2.80;99.90;;;;;;4900237;29;20452;-66
2021/01/02 03:14:39;;;;;;;13.73;8.17;;;2.80;99.90;;;;;;4900564;29;20445;-66
2021/01/02 03:17:05;;;;;;;16.97;9.13;;;2.80;99.90;;;;;;4900469;29;20453;-66
2021/01/02 03:19:32;;;;;;;15.33;8.60;;;2.80;99.90;;;;;;4899816;29;20870;-66
2021/01/02 03:21:59;;;;;;;13.13;8.73;;;2.80;99.90;;;;;;4900047;29;20480;-66
2021/01/02 03:24:26;;;;;;;17.77;9.43;;;2.90;99.90;;;;;;4900417;29;20514;-67
2021/01/02 03:26:52;;;;;;;12.90;8.13;;;2.80;99.90;;;;;;4900431;29;20532;-66
2021/01/02 03:29:18;;;;;;;14.37;9.13;;;2.90;99.90;;;;;;4900470;29;20445;-67
2021/01/02 03:31:44;;;;;;;15.93;9.30;;;2.80;99.90;;;;;;4900142;29;20453;-66
2021/01/02 03:34:11;;;;;;;14.97;8.50;;;2.90;99.90;;;;;;4900358;29;20469;-66
2021/01/02 03:36:37;;;;;;;13.10;8.30;;;2.80;99.90;;;;;;4899904;29;20449;-66
2021/01/02 03:39:05;;;;;;;15.17;9.20;;;2.70;99.90;;;;;;4900025;29;20481;-66
2021/01/02 03:41:31;;;;;;;13.07;7.93;;;2.70;99.90;;;;;;4900015;29;20830;-66
2021/01/02 03:43:57;;;;;;;16.00;8.20;;;2.70;99.90;;;;;;4899920;29;20477;-67
2021/01/02 03:46:27;;;;;;;13.40;8.23;;;2.70;99.90;;;;;;4900114;29;20453;-66
2021/01/02 03:48:53;;;;;;;16.23;9.47;;;2.70;99.90;;;;;;4899957;29;20501;-66
2021/01/02 03:51:23;;;;;;;12.73;8.60;;;2.70;99.90;;;;;;4899928;29;20448;-67
2021/01/02 03:53:49;;;;;;;12.83;8.10;;;2.70;99.90;;;;;;4899721;29;20481;-66
2021/01/02 03:56:16;;;;;;;16.60;9.00;;;2.70;99.90;;;;;;4899713;29;20539;-66
2021/01/02 03:58:42;;;;;;;17.10;8.70;;;2.70;99.90;;;;;;4899730;29;20484;-66
2021/01/02 04:01:08;;;;;;;15.07;8.67;;;2.70;99.90;;;;;;4899770;29;20456;-67
2021/01/02 04:03:35;;;;;;;13.60;8.20;;;2.70;99.90;;;;;;4899461;29;20473;-67
2021/01/02 04:06:01;;;;;;;12.40;7.47;;;2.80;99.90;;;;;;4899584;29;20453;-67
2021/01/02 04:08:27;;;;;;;16.60;8.63;;;2.80;99.90;;;;;;4899554;29;20441;-66
2021/01/02 04:10:53;;;;;;;15.97;9.10;;;2.70;99.90;;;;;;4899423;29;20890;-66
2021/01/02 04:13:20;;;;;;;15.57;9.27;;;2.70;99.90;;;;;;4899386;29;20477;-66
2021/01/02 04:15:46;;;;;;;12.57;7.63;;;2.70;99.90;;;;;;4899062;29;20425;-66
2021/01/02 04:18:13;;;;;;;14.00;8.37;;;2.80;99.90;;;;;;4898762;29;20843;-67
2021/01/02 04:20:39;;;;;;;14.40;8.87;;;2.80;99.90;;;;;;4898997;29;20491;-67
2021/01/02 04:23:05;;;;;;;14.67;8.50;;;2.80;99.90;;;;;;4898459;29;20469;-67
2021/01/02 04:25:31;;;;;;;12.80;8.23;;;2.80;99.90;;;;;;4898922;29;20826;-67
2021/01/02 04:27:57;;;;;;;13.63;8.20;;;2.80;99.90;;;;;;4899160;29;20449;-67
2021/01/02 04:30:24;;;;;;;16.03;8.07;;;2.80;99.90;;;;;;4900086;29;20453;-67
2021/01/02 04:32:51;;;;;;;14.63;9.00;;;2.80;99.90;;;;;;4898565;29;20469;-67
2021/01/02 04:35:17;;;;;;;13.20;7.80;;;2.80;99.90;;;;;;4899110;29;20464;-67
2021/01/02 04:37:43;;;;;;;12.93;8.23;;;2.90;99.90;;;;;;4898995;29;20480;-67
2021/01/02 04:40:12;;;;;;;12.87;7.80;;;2.90;99.90;;;;;;4899697;29;20453;-67
2021/01/02 04:42:42;;;;;;;11.20;6.80;;;2.80;99.90;;;;;;4898912;29;20472;-67
2021/01/02 04:45:11;;;;;;;14.77;9.07;;;2.80;99.90;;;;;;4898622;29;20938;-67
2021/01/02 04:47:39;;;;;;;14.50;8.40;;;2.80;99.90;;;;;;4898793;29;20449;-66
2021/01/02 04:50:07;;;;;;;15.27;8.37;;;2.90;99.90;;;;;;4898839;29;20434;-67
2021/01/02 04:52:35;;;;;;;16.70;9.17;;;2.90;99.90;;;;;;4898661;29;20874;-67
2021/01/02 04:55:03;;;;;;;17.80;10.37;;;2.90;99.90;;;;;;4898709;29;20413;-66
2021/01/02 04:57:33;;;;;;;14.37;8.27;;;2.90;99.90;;;;;;4898470;29;20520;-66
2021/01/02 05:00:02;;;;;;;15.83;9.63;;;2.90;99.90;;;;;;4898764;29;20804;-67
2021/01/02 05:02:30;;;;;;;16.03;9.37;;;2.90;99.90;;;;;;4898590;29;20926;-67
2021/01/02 05:04:57;;;;;;;13.60;9.37;;;2.90;99.90;;;;;;4898549;29;20453;-66
2021/01/02 05:07:25;;;;;;;15.27;9.00;;;2.90;99.90;;;;;;4898063;29;20790;-67
2021/01/02 05:09:51;;;;;;;17.63;8.77;;;2.90;99.90;;;;;;4898448;29;20445;-66
2021/01/02 05:12:27;;;;;;;18.27;10.10;;;2.90;99.90;;;;;;4898302;29;20451;-66
2021/01/02 05:14:58;;;;;;;17.07;10.43;;;2.90;99.90;;;;;;4898382;29;20453;-66
2021/01/02 05:17:26;;;;;;;17.73;9.57;;;2.90;99.90;;;;;;4898059;29;20843;-66
2021/01/02 05:20:10;;;;;;;18.90;10.57;;;2.90;99.90;;;;;;4898030;29;20983;-66
2021/01/02 05:22:36;;;;;;;15.37;9.37;;;2.90;99.90;;;;;;4897753;29;20528;-66
2021/01/02 05:25:09;;;;;;;16.50;9.23;;;2.90;99.90;;;;;;4898286;29;20444;-66
2021/01/02 05:27:36;;;;;;;12.63;8.47;;;2.90;99.90;;;;;;4898290;29;20880;-66
2021/01/02 05:30:24;;;;;;;16.40;9.40;;;2.90;99.90;;;;;;4898213;29;20459;-66
2021/01/02 05:32:55;;;;;;;17.10;9.90;;;2.90;99.90;;;;;;4898298;29;20559;-66
2021/01/02 05:35:23;;;;;;;15.47;9.43;;;2.80;99.90;;;;;;4898044;29;20508;-66
2021/01/02 05:37:49;;;;;;;16.10;9.93;;;2.90;99.90;;;;;;4898527;29;20452;-66
2021/01/02 05:40:37;;;;;;;18.67;10.00;;;2.90;99.90;;;;;;4898105;29;20512;-66
2021/01/02 05:43:04;;;;;;;17.97;9.50;;;2.90;99.90;;;;;;4897800;29;20984;-66
2021/01/02 05:45:31;;;;;;;21.83;11.07;;;2.90;99.90;;;;;;4898113;29;20572;-66
2021/01/02 05:47:57;;;;;;;15.83;10.37;;;3.00;99.90;;;;;;4897747;29;20452;-66
2021/01/02 05:50:25;;;;;;;20.03;10.70;;;3.00;99.90;;;;;;4897972;29;20445;-66
2021/01/02 05:52:52;;;;;;;15.23;10.13;;;3.00;99.90;;;;;;4897811;29;20472;-66
2021/01/02 05:55:28;;;;;;;16.80;9.73;;;3.00;99.90;;;;;;4897953;29;20472;-66
2021/01/02 05:57:55;;;;;;;13.53;9.27;;;2.90;99.90;;;;;;4897522;29;20488;-66
2021/01/02 06:00:23;;;;;;;18.10;10.00;;;2.90;99.90;;;;;;4897944;29;20457;-66
2021/01/02 06:02:49;;;;;;;15.10;9.47;;;2.90;99.90;;;;;;4897732;29;20484;-66
2021/01/02 06:05:15;;;;;;;19.87;10.80;;;2.90;99.90;;;;;;4897895;29;20489;-66
2021/01/02 06:07:49;;;;;;;17.87;9.87;;;2.90;99.90;;;;;;4897911;29;20453;-67
2021/01/02 06:10:16;;;;;;;20.93;10.33;;;3.00;99.90;;;;;;4897839;29;20443;-66
2021/01/02 06:12:44;;;;;;;19.27;9.93;;;3.00;99.90;;;;;;4897717;29;20481;-66
2021/01/02 06:15:12;;;;;;;17.77;10.30;;;3.10;99.90;;;;;;4897585;29;20449;-67
2021/01/02 06:17:40;;;;;;;19.77;10.67;;;3.00;99.90;;;;;;4897750;29;20824;-66
2021/01/02 06:20:08;;;;;;;17.83;10.60;;;3.00;99.90;;;;;;4897383;29;20499;-66
2021/01/02 06:22:36;;;;;;;18.00;9.17;;;3.10;99.90;;;;;;4897634;29;20473;-66
2021/01/02 06:25:05;;;;;;;17.40;9.57;;;3.00;99.90;;;;;;4897769;29;20826;-66
2021/01/02 06:27:31;;;;;;;22.60;10.70;;;3.00;99.90;;;;;;4897642;29;20456;-66
2021/01/02 06:29:58;;;;;;;18.80;10.77;;;3.00;99.90;;;;;;4897395;29;20445;-66
2021/01/02 06:32:26;;;;;;;17.97;10.43;;;3.00;99.90;;;;;;4897808;29;20480;-66
2021/01/02 06:35:19;;;;;;;20.47;10.03;;;3.00;99.90;;;;;;4897876;29;20449;-67
2021/01/02 06:38:15;;;;;;;17.53;9.80;;;2.90;99.90;;;;;;4897449;29;20452;-66
2021/01/02 06:40:45;;;;;;;18.43;10.30;;;2.90;99.90;;;;;;4897746;29;20442;-66
2021/01/02 06:43:13;;;;;;;16.93;9.70;;;2.90;99.90;;;;;;4897134;29;20469;-67
2021/01/02 06:45:53;;;;;;;18.60;10.07;;;2.90;99.90;;;;;;4897464;29;20449;-66
2021/01/02 06:48:39;;;;;;;17.20;9.10;;;2.90;99.90;;;;;;4900990;29;20436;-66
2021/01/02 06:51:30;;;;;;;18.27;8.93;;;2.90;99.90;;;;;;4900944;29;20453;-66
2021/01/02 06:53:57;;;;;;;13.00;8.10;;;2.80;99.90;;;;;;4900532;29;21015;-67
2021/01/02 06:56:35;;;;;;;15.60;8.50;;;2.60;99.90;;;;;;4900553;29;20460;-67
2021/01/02 06:59:01;;;;;;;21.20;8.97;;;2.50;99.90;;;;;;4900416;29;20473;-66
2021/01/02 07:01:41;;;;;;;18.23;9.00;;;2.40;99.90;;;;;;4900707;29;20452;-66
2021/01/02 07:04:07;;;;;;;16.47;9.00;;;2.50;99.90;;;;;;4900498;29;20523;-66
2021/01/02 07:06:51;;;;;;;20.23;10.43;;;2.60;99.90;;;;;;4900446;29;20870;-66
2021/01/02 07:09:24;;;;;;;16.60;8.77;;;2.70;99.90;;;;;;4900800;29;20429;-66
2021/01/02 07:12:06;;;;;;;16.90;8.77;;;2.50;99.90;;;;;;4900639;29;20593;-67
2021/01/02 07:14:33;;;;;;;17.00;9.63;;;2.30;99.90;;;;;;4898274;29;20439;-66
2021/01/02 07:17:00;;;;;;;17.10;7.97;;;2.30;99.90;;;;;;4900555;29;20445;-66
2021/01/02 07:19:34;;;;;;;16.93;9.13;;;2.40;99.90;;;;;;4900369;29;20505;-66
2021/01/02 07:22:01;;;;;;;16.00;8.90;;;2.40;99.90;;;;;;4900578;29;20497;-66
2021/01/02 07:24:30;;;;;;;14.80;8.67;;;2.50;99.90;;;;;;4901199;29;20456;-66
2021/01/02 07:26:58;;;;;;;14.67;8.40;;;2.40;99.90;;;;;;4900376;29;20528;-66
2021/01/02 07:29:24;;;;;;;17.63;8.67;;;2.50;99.90;;;;;;4900259;29;20445;-66
2021/01/02 07:31:51;;;;;;;14.93;8.70;;;2.60;99.90;;;;;;4900223;29;20453;-66
2021/01/02 07:34:19;;;;;;;16.63;8.30;;;2.60;99.90;;;;;;4899710;29;21056;-66
2021/01/02 07:36:45;;;;;;;15.10;8.43;;;2.50;99.90;;;;;;4900124;29;20456;-66
2021/01/02 07:39:12;;;;;;;14.70;7.77;;;2.30;99.90;;;;;;4899839;29;21028;-66
2021/01/02 07:41:39;;;;;;;14.30;8.60;;;2.40;99.90;;;;;;4899783;29;20969;-66
2021/01/02 07:44:07;;;;;;;14.23;8.13;;;2.30;99.90;;;;;;4899968;29;20949;-66
2021/01/02 07:46:33;;;;;;;11.93;6.73;;;2.20;99.90;;;;;;4899643;29;20806;-66
2021/01/02 07:49:00;;;;;;;16.30;8.67;;;2.30;99.90;;;;;;4899736;29;20462;-66
2021/01/02 07:51:27;;;;;;;16.23;8.30;;;2.30;99.90;;;;;;4900437;29;20469;-66
2021/01/02 07:53:54;;;;;;;19.70;8.50;;;2.40;99.90;;;;;;4899735;29;20511;-66
2021/01/02 07:56:35;;;;;;;19.07;9.60;;;2.50;99.90;;;;;;4899832;29;20456;-66
2021/01/02 07:59:25;;;;;;;16.23;9.57;;;2.60;99.90;;;;;;4896448;29;20481;-66
2021/01/02 08:01:56;;;;;;;15.20;7.77;;;2.70;99.90;;;;;;4899470;29;20962;-66
2021/01/02 08:04:24;;;;;;;12.60;7.70;;;2.60;99.90;;;;;;4899524;29;20476;-66
2021/01/02 08:06:52;;;;;;;18.40;8.27;;;2.50;99.90;;;;;;4899567;29;20453;-67
2021/01/02 08:09:19;;;;;;;14.90;7.97;;;2.50;99.90;;;;;;4899189;29;20945;-66
2021/01/02 08:11:57;;;;;;;14.17;8.87;;;2.60;99.90;;;;;;4899496;29;20529;-66
2021/01/02 08:14:25;;;;;;;16.00;9.00;;;2.70;99.90;;;;;;4899381;29;20473;-66
2021/01/02 08:17:08;;;;;;;16.10;9.50;;;2.80;99.90;;;;;;4899849;29;20429;-66
2021/01/02 08:19:36;;;;;;;11.67;7.43;;;2.70;99.90;;;;;;4890574;29;20504;-66
2021/01/02 08:22:05;;;;;;;17.03;9.47;;;2.70;99.90;;;;;;4880450;29;20425;-67
2021/01/02 08:24:31;;;;;;;14.27;7.97;;;2.70;99.90;;;;;;4881557;29;20457;-67
2021/01/02 08:26:59;;;;;;;17.10;8.23;;;2.70;99.90;;;;;;4880728;29;20434;-67
2021/01/02 08:29:27;;;;;;;12.27;8.27;;;2.70;99.90;;;;;;4880664;29;20776;-67
2021/01/02 08:31:58;;;;;;;20.53;9.33;;;2.60;99.90;;;;;;4880337;29;20831;-66
2021/01/02 08:34:33;;;;;;;16.00;9.20;;;2.70;99.90;;;;;;4880496;29;20477;-66
2021/01/02 08:37:01;;;;;;;16.20;9.07;;;2.70;99.90;;;;;;4880291;29;20441;-66
2021/01/02 08:39:27;;;;;;;16.40;8.57;;;2.80;99.90;;;;;;4880427;29;20470;-66
2021/01/02 08:41:55;;;;;;;14.90;8.63;;;2.50;99.90;;;;;;4880314;29;20442;-66
2021/01/02 08:44:30;;;;;;;13.90;8.40;;;2.50;99.90;;;;;;4880189;29;20480;-66
2021/01/02 08:46:56;;;;;;;14.80;8.50;;;2.50;99.90;;;;;;4880160;29;20779;-66
2021/01/02 08:49:30;;;;;;;14.53;9.33;;;2.50;99.90;;;;;;4880309;29;20475;-67
2021/01/02 08:52:16;;;;;;;17.60;10.13;;;2.50;99.90;;;;;;4879885;29;20981;-66
2021/01/02 08:54:42;;;;;;;15.80;9.30;;;2.70;99.90;;;;;;4880167;29;20838;-67
2021/01/02 08:57:27;;;;;;;19.07;9.83;;;2.60;99.90;;;;;;4880070;29;20433;-67
2021/01/02 09:00:20;;;;;;;19.60;10.77;;;2.60;99.90;;;;;;4879863;29;20456;-65
2021/01/02 09:02:49;;;;;;;17.13;8.63;;;2.80;99.90;;;;;;4877582;29;20673;-65
2021/01/02 09:05:17;;;;;;;14.80;8.70;;;2.80;99.90;;;;;;4879928;29;20454;-65
2021/01/02 09:07:54;;;;;;;15.83;8.80;;;2.80;99.90;;;;;;4879632;29;20966;-64
2021/01/02 09:10:25;;;;;;;16.87;9.57;;;2.80;99.90;;;;;;4879449;29;20461;-65
2021/01/02 09:13:11;;;;;;;16.77;9.27;;;2.90;99.90;;;;;;4879483;29;20962;-66
2021/01/02 09:15:57;;;;;;;16.27;8.73;;;2.80;99.90;;;;;;4879539;29;20916;-65
2021/01/02 09:18:38;;;;;;;16.87;8.30;;;2.90;99.90;;;;;;4873351;29;20989;-65
2021/01/02 09:21:26;;;;;;;13.00;8.10;;;2.90;99.90;;;;;;4897450;29;20909;-66
2021/01/02 09:23:56;;;;;;;16.27;8.10;;;3.00;99.90;;;;;;4897951;29;20985;-65
2021/01/02 09:26:25;;;;;;;18.50;8.60;;;3.10;99.90;;;;;;4898230;29;20453;-65
2021/01/02 09:28:53;;;;;;;15.80;8.40;;;2.90;99.90;;;;;;4898223;29;20464;-65
2021/01/02 09:31:21;;;;;;;15.00;8.57;;;3.00;99.90;;;;;;4898218;29;20445;-65
2021/01/02 09:33:48;;;;;;;15.07;7.97;;;2.80;99.90;;;;;;4898049;29;20477;-65
2021/01/02 09:36:15;;;;;;;15.10;8.70;;;2.90;99.90;;;;;;4897756;29;20952;-66
2021/01/02 09:38:42;;;;;;;16.07;8.43;;;3.00;99.90;;;;;;4897999;29;20485;-65
2021/01/02 09:41:11;;;;;;;17.40;8.47;;;3.10;99.90;;;;;;4898057;29;20448;-66
2021/01/02 09:43:37;;;;;;;15.73;8.70;;;3.00;99.90;;;;;;4897926;29;20480;-65
2021/01/02 09:46:04;;;;;;;17.10;9.60;;;3.10;99.90;;;;;;4898188;29;20456;-65
2021/01/02 09:48:30;;;;;;;18.80;8.67;;;3.20;99.90;;;;;;4898087;29;20497;-65
2021/01/02 09:50:56;;;;;;;14.20;8.73;;;3.20;99.90;;;;;;4897736;29;20918;-65
2021/01/02 09:53:23;;;;;;;16.90;9.07;;;3.10;99.90;;;;;;4897889;29;20524;-65
2021/01/02 09:55:49;;;;;;;17.83;9.50;;;3.00;99.90;;;;;;4897879;29;20476;-65
2021/01/02 09:58:16;;;;;;;19.70;9.90;;;2.90;99.90;;;;;;4897517;29;20456;-65
2021/01/02 10:00:42;;;;;;;16.83;8.90;;;3.00;99.90;;;;;;4897956;29;20411;-66
2021/01/02 10:03:09;;;;;;;16.93;9.63;;;3.10;99.90;;;;;;4898012;29;20473;-66
2021/01/02 10:05:36;;;;;;;12.40;8.23;;;3.10;99.90;;;;;;4897885;29;20438;-66
2021/01/02 10:08:03;;;;;;;16.60;10.00;;;3.00;99.90;;;;;;4897841;29;20444;-65
2021/01/02 10:10:29;;;;;;;17.47;9.57;;;3.00;99.90;;;;;;4897795;29;20444;-67
2021/01/02 10:12:56;;;;;;;16.60;9.30;;;3.20;99.90;;;;;;4897763;29;20477;-65
2021/01/02 10:15:24;;;;;;;16.00;8.77;;;3.30;99.90;;;;;;4897884;29;20419;-66
2021/01/02 10:17:50;;;;;;;14.27;8.73;;;3.00;99.90;;;;;;4897779;29;20496;-66
2021/01/02 10:20:16;;;;;;;15.43;9.40;;;3.00;99.90;;;;;;4883454;29;20917;-66
2021/01/02 10:22:43;;;;;;;13.90;7.50;;;3.00;99.90;;;;;;4882059;29;20469;-66
2021/01/02 10:25:10;;;;;;;12.07;7.97;;;3.00;99.90;;;;;;4882746;29;20472;-66
2021/01/02 10:27:37;;;;;;;13.90;7.87;;;3.20;99.90;;;;;;4882761;29;20489;-66
2021/01/02 10:30:06;;;;;;;13.30;7.77;;;3.40;99.90;;;;;;4882915;29;20445;-66
2021/01/02 10:32:34;;;;;;;12.10;7.40;;;3.40;99.90;;;;;;4882702;29;20474;-66
2021/01/02 10:35:00;;;;;;;12.57;8.40;;;3.50;99.90;;;;;;4883223;29;20466;-66
2021/01/02 10:37:28;;;;;;;15.63;8.10;;;3.50;99.90;;;;;;4882452;29;20537;-66
2021/01/02 10:39:55;;;;;;;13.97;8.70;;;3.60;99.90;;;;;;4882388;29;20485;-66
2021/01/02 10:42:24;;;;;;;12.30;7.33;;;3.50;99.90;;;;;;4882386;29;20441;-66
2021/01/02 10:44:50;;;;;;;14.57;8.87;;;3.60;99.90;;;;;;4882114;29;20958;-66
2021/01/02 10:47:18;;;;;;;11.97;7.27;;;3.60;99.90;;;;;;4882318;29;20453;-66
2021/01/02 10:49:46;;;;;;;8.83;7.00;;;3.60;99.90;;;;;;4882361;29;20540;-66
2021/01/02 10:52:15;;;;;;;11.43;7.77;;;3.60;99.90;;;;;;4882145;29;20453;-66
2021/01/02 10:54:43;;;;;;;14.87;7.70;;;3.40;99.90;;;;;;4883032;29;20489;-66
2021/01/02 10:57:09;;;;;;;13.77;8.27;;;3.30;99.90;;;;;;4881787;29;20536;-67
2021/01/02 10:59:35;;;;;;;12.60;7.60;;;3.40;99.90;;;;;;4881726;29;21001;-66
2021/01/02 11:02:02;;;;;;;13.00;7.60;;;3.40;99.90;;;;;;4882271;29;20454;-67
2021/01/02 11:04:28;;;;;;;14.53;8.80;;;3.50;99.90;;;;;;4881994;29;20469;-66
2021/01/02 11:06:55;;;;;;;10.10;7.00;;;3.60;99.90;;;;;;4882004;29;20856;-66
2021/01/02 11:09:24;;;;;;;14.00;8.03;;;3.50;99.90;;;;;;4881909;29;20420;-67
2021/01/02 11:11:51;;;;;;;11.60;7.30;;;3.40;99.90;;;;;;4881578;29;20454;-67
2021/01/02 11:14:18;;;;;;;12.50;7.17;;;3.40;99.90;;;;;;4881997;29;20465;-67
2021/01/02 11:16:47;;;;;;;11.93;7.57;;;3.60;99.90;;;;;;4881523;29;20454;-67
2021/01/02 11:19:14;;;;;;;12.37;7.57;;;3.70;99.90;;;;;;4881475;29;20493;-66
2021/01/02 11:21:41;;;;;;;10.50;6.63;;;3.70;99.90;;;;;;4882119;29;20457;-67
2021/01/02 11:24:09;;;;;;;11.27;6.93;;;3.80;99.90;;;;;;4881772;29;20473;-67
2021/01/02 11:26:36;;;;;;;14.07;7.40;;;4.00;99.90;;;;;;4881452;29;20962;-67
2021/01/02 11:29:03;;;;;;;12.60;7.60;;;4.20;99.90;;;;;;4882384;29;20450;-67
2021/01/02 11:31:30;;;;;;;10.63;6.97;;;4.30;99.90;;;;;;4881557;29;20429;-67
2021/01/02 11:33:57;;;;;;;10.07;7.17;;;4.40;99.90;;;;;;4881290;29;20469;-66
2021/01/02 11:36:24;;;;;;;10.50;6.60;;;4.50;99.90;;;;;;4881449;29;20453;-66
2021/01/02 11:38:50;;;;;;;11.33;7.70;;;4.60;99.90;;;;;;4881396;29;20485;-66
2021/01/02 11:41:19;;;;;;;12.00;7.67;;;4.60;99.90;;;;;;4881403;29;20826;-66
2021/01/02 11:43:46;;;;;;;11.63;7.20;;;4.50;99.90;;;;;;4881483;29;20473;-66
2021/01/02 11:46:12;;;;;;;13.33;7.70;;;4.40;99.90;;;;;;4881331;29;20474;-67
2021/01/02 11:48:40;;;;;;;10.40;7.20;;;4.30;99.90;;;;;;4881028;29;20450;-67
2021/01/02 11:51:12;;;;;;;15.27;7.93;;;4.30;99.90;;;;;;4880898;29;20985;-67
2021/01/02 11:53:39;;;;;;;13.33;8.10;;;4.30;99.90;;;;;;4881222;29;20614;-67
2021/01/02 11:56:06;;;;;;;12.93;7.40;;;4.20;99.90;;;;;;4881072;29;20458;-67
2021/01/02 11:58:33;;;;;;;12.50;6.93;;;3.80;99.90;;;;;;4881065;29;22433;-66
2021/01/02 12:00:59;;;;;;;10.10;6.50;;;3.80;99.90;;;;;;4881065;29;20516;-66
2021/01/02 12:03:25;;;;;;;10.23;7.40;;;3.70;99.90;;;;;;4881032;29;20551;-66
2021/01/02 12:05:52;;;;;;;13.00;7.47;;;3.60;99.90;;;;;;4880935;29;20450;-66
2021/01/02 12:08:18;;;;;;;11.83;8.40;;;3.60;99.90;;;;;;4880982;29;20544;-66
2021/01/02 12:10:44;;;;;;;12.27;8.07;;;3.70;99.90;;;;;;4880848;29;20450;-66
2021/01/02 12:13:10;;;;;;;13.03;7.50;;;3.70;99.90;;;;;;4880853;29;20477;-66
2021/01/02 12:15:37;;;;;;;10.40;7.10;;;3.70;99.90;;;;;;4880747;29;20450;-67
2021/01/02 12:18:04;;;;;;;11.43;7.20;;;3.60;99.90;;;;;;4881087;29;20447;-66
2021/01/02 12:20:30;;;;;;;10.00;7.30;;;3.60;99.90;;;;;;4880379;29;20493;-66
2021/01/02 12:22:56;;;;;;;12.40;7.20;;;3.60;99.90;;;;;;4880760;29;20887;-66
2021/01/02 12:25:24;;;;;;;12.13;7.30;;;3.60;99.90;;;;;;4880684;29;20461;-66
2021/01/02 12:27:50;;;;;;;16.27;9.23;;;3.60;99.90;;;;;;4880542;29;20465;-67
2021/01/02 12:30:18;;;;;;;11.30;7.30;;;3.70;99.90;;;;;;4880482;29;20860;-66
2021/01/02 12:32:45;;;;;;;13.93;7.40;;;3.80;99.90;;;;;;4880451;29;20478;-67
2021/01/02 12:35:11;;;;;;;11.13;7.23;;;3.70;99.90;;;;;;4880458;29;20458;-66
2021/01/02 12:37:38;;;;;;;11.60;7.07;;;3.60;99.90;;;;;;4880381;29;20822;-66
2021/01/02 12:40:05;;;;;;;10.17;7.30;;;3.70;99.90;;;;;;4880528;29;20478;-66
2021/01/02 12:42:37;;;;;;;12.30;8.27;;;3.70;99.90;;;;;;4880313;29;20601;-66
2021/01/02 12:45:05;;;;;;;12.87;7.43;;;3.90;99.90;;;;;;4879676;29;20438;-67
2021/01/02 12:47:31;;;;;;;11.60;7.53;;;4.00;99.90;;;;;;4880262;29;20449;-66
2021/01/02 12:49:58;;;;;;;11.43;7.53;;;4.00;99.90;;;;;;4879970;29;20835;-67
2021/01/02 12:52:27;;;;;;;12.00;8.50;;;3.80;99.90;;;;;;4880112;29;20473;-66
2021/01/02 12:54:53;;;;;;;16.37;8.67;;;3.70;99.90;;;;;;4880266;29;20446;-66
2021/01/02 12:57:20;;;;;;;13.50;8.40;;;3.70;99.90;;;;;;4880233;29;20441;-66
2021/01/02 12:59:46;;;;;;;14.13;8.73;;;3.50;99.90;;;;;;4880168;29;20475;-66
2021/01/02 13:02:12;;;;;;;15.97;9.60;;;3.50;99.90;;;;;;4879916;29;20906;-67
2021/01/02 13:04:39;;;;;;;15.73;8.50;;;3.30;99.90;;;;;;4880152;29;20437;-67